createdAt,value
2023-05-11T00:00:03.541Z,1.08
2023-05-11T00:01:08.236Z,1.48
2023-05-11T00:02:09.984Z,1.10
2023-05-11T00:03:12.616Z,1.20
2023-05-11T00:04:14.606Z,1.17
2023-05-11T00:05:16.964Z,1.23
2023-05-11T00:06:18.725Z,0.90
2023-05-11T00:07:20.368Z,1.30
2023-05-11T00:08:24.429Z,1.30
2023-05-11T00:09:28.981Z,1.23
2023-05-11T00:10:31.331Z,1.40
2023-05-11T00:11:33.205Z,1.20
2023-05-11T00:12:37.478Z,1.60
2023-05-11T00:13:39.100Z,1.27
2023-05-11T00:14:48.081Z,1.77
2023-05-11T00:15:52.173Z,1.35
2023-05-11T00:16:57.564Z,1.35
2023-05-11T00:17:59.227Z,1.55
2023-05-11T00:19:05.393Z,1.45
2023-05-11T00:20:10.562Z,1.20
2023-05-11T00:21:12.299Z,1.40
2023-05-11T00:22:14.005Z,1.83
2023-05-11T00:23:15.619Z,1.40
2023-05-11T00:24:18.266Z,1.60
2023-05-11T00:25:19.951Z,1.38
2023-05-11T00:26:21.891Z,1.80
2023-05-11T00:27:23.541Z,1.40
2023-05-11T00:28:25.200Z,1.50
2023-05-11T00:29:29.104Z,1.90
2023-05-11T00:30:31.220Z,1.88
2023-05-11T00:31:33.777Z,1.85
2023-05-11T00:32:35.686Z,2.25
2023-05-11T00:33:38.185Z,1.65
2023-05-11T00:34:40.241Z,1.67
2023-05-11T00:35:43.453Z,1.95
2023-05-11T00:36:46.765Z,2.00
2023-05-11T00:37:53.805Z,2.13
2023-05-11T00:38:56.123Z,1.80
2023-05-11T00:39:58.082Z,1.77
2023-05-11T00:41:02.533Z,1.65
2023-05-11T00:42:04.254Z,2.00
2023-05-11T00:43:06.021Z,1.52
2023-05-11T00:44:08.761Z,1.80
2023-05-11T00:45:11.476Z,1.98
2023-05-11T00:46:13.187Z,2.03
2023-05-11T00:47:15.256Z,1.85
2023-05-11T00:48:18.047Z,2.13
2023-05-11T00:49:24.342Z,2.10
2023-05-11T00:50:26.725Z,2.33
2023-05-11T00:51:29.180Z,1.80
2023-05-11T00:52:34.135Z,1.60
2023-05-11T00:53:35.826Z,1.73
2023-05-11T00:54:39.722Z,1.70
2023-05-11T00:55:42.422Z,1.80
2023-05-11T00:56:51.377Z,1.80
2023-05-11T00:57:53.691Z,2.00
2023-05-11T00:58:55.365Z,2.13
2023-05-11T00:59:57.275Z,1.98
2023-05-11T01:00:59.143Z,1.70
2023-05-11T01:02:01.462Z,1.88
2023-05-11T01:03:03.484Z,1.67
2023-05-11T01:04:06.402Z,1.80
2023-05-11T01:05:08.966Z,2.00
2023-05-11T01:06:11.484Z,1.90
2023-05-11T01:07:19.428Z,2.22
2023-05-11T01:08:27.158Z,2.03
2023-05-11T01:09:47.979Z,2.10
2023-05-11T01:11:08.297Z,2.00
2023-05-11T01:12:21.322Z,1.90
2023-05-11T01:13:34.320Z,1.90
2023-05-11T01:14:46.708Z,1.80
2023-05-11T01:15:53.149Z,2.20
2023-05-11T01:16:57.590Z,2.22
2023-05-11T01:18:14.664Z,2.20
2023-05-11T01:19:30.739Z,2.08
2023-05-11T01:20:33.344Z,1.95
2023-05-11T01:21:35.453Z,1.85
2023-05-11T01:22:43.554Z,1.73
2023-05-11T01:24:04.184Z,2.03
2023-05-11T01:25:10.690Z,1.90
2023-05-11T01:26:15.250Z,1.90
2023-05-11T01:27:32.101Z,1.90
2023-05-11T01:28:51.299Z,2.08
2023-05-11T01:30:14.258Z,2.50
2023-05-11T01:31:17.683Z,2.10
2023-05-11T01:32:34.360Z,1.95
2023-05-11T01:33:39.326Z,2.20
2023-05-11T01:34:42.329Z,2.58
2023-05-11T01:35:48.566Z,1.88
2023-05-11T01:36:58.263Z,2.10
2023-05-11T01:38:01.721Z,2.42
2023-05-11T01:39:09.096Z,1.85
2023-05-11T01:40:13.913Z,1.90
2023-05-11T01:41:17.938Z,1.80
2023-05-11T01:42:24.664Z,2.10
2023-05-11T01:43:27.972Z,1.77
2023-05-11T01:44:33.368Z,2.13
2023-05-11T01:45:37.579Z,1.83
2023-05-11T01:46:40.299Z,2.20
2023-05-11T01:47:43.788Z,1.73
2023-05-11T01:48:56.666Z,1.90
2023-05-11T01:50:00.927Z,1.60
2023-05-11T01:51:03.686Z,1.90
2023-05-11T01:52:08.609Z,2.28
2023-05-11T01:53:11.720Z,1.80
2023-05-11T01:54:15.082Z,1.77
2023-05-11T01:55:21.984Z,2.28
2023-05-11T01:56:25.137Z,1.70
2023-05-11T01:57:28.438Z,2.75
2023-05-11T01:58:31.263Z,2.30
2023-05-11T01:59:33.508Z,2.10
2023-05-11T02:00:37.891Z,1.90
2023-05-11T02:01:47.303Z,2.10
2023-05-11T02:02:50.049Z,1.65
2023-05-11T02:03:52.487Z,1.70
2023-05-11T02:04:55.617Z,2.13
2023-05-11T02:05:58.528Z,1.90
2023-05-11T02:07:01.832Z,2.00
2023-05-11T02:08:04.741Z,2.00
2023-05-11T02:09:08.259Z,2.00
2023-05-11T02:10:11.386Z,1.92
2023-05-11T02:11:14.216Z,2.00
2023-05-11T02:12:18.450Z,1.90
2023-05-11T02:13:20.329Z,2.10
2023-05-11T02:14:23.093Z,2.58
2023-05-11T02:15:25.883Z,2.00
2023-05-11T02:16:29.652Z,2.10
2023-05-11T02:17:32.661Z,2.00
2023-05-11T02:18:35.718Z,2.33
2023-05-11T02:19:45.364Z,2.03
2023-05-11T02:20:47.487Z,2.30
2023-05-11T02:21:51.132Z,2.65
2023-05-11T02:22:53.527Z,2.25
2023-05-11T02:23:55.774Z,2.65
2023-05-11T02:24:57.756Z,2.67
2023-05-11T02:25:59.802Z,2.60
2023-05-11T02:27:01.843Z,2.40
2023-05-11T02:28:05.851Z,2.63
2023-05-11T02:29:09.318Z,2.28
2023-05-11T02:30:11.791Z,3.03
2023-05-11T02:31:17.335Z,2.67
2023-05-11T02:32:20.213Z,2.55
2023-05-11T02:33:25.961Z,2.60
2023-05-11T02:34:36.064Z,2.63
2023-05-11T02:35:40.959Z,2.38
2023-05-11T02:36:45.363Z,2.10
2023-05-11T02:37:47.939Z,2.65
2023-05-11T02:38:51.333Z,2.30
2023-05-11T02:40:01.620Z,2.42
2023-05-11T02:41:08.295Z,2.08
2023-05-11T02:42:18.160Z,2.42
2023-05-11T02:43:22.155Z,2.83
2023-05-11T02:44:30.044Z,2.38
2023-05-11T02:45:33.470Z,2.72
2023-05-11T02:46:37.082Z,2.15
2023-05-11T02:47:43.885Z,2.30
2023-05-11T02:48:50.117Z,2.53
2023-05-11T02:49:55.165Z,2.00
2023-05-11T02:50:58.332Z,2.20
2023-05-11T02:52:01.527Z,2.70
2023-05-11T02:53:05.622Z,2.55
2023-05-11T02:54:10.982Z,3.00
2023-05-11T02:55:15.021Z,2.70
2023-05-11T02:56:16.967Z,2.03
2023-05-11T02:57:19.149Z,2.58
2023-05-11T02:58:21.470Z,2.67
2023-05-11T02:59:24.179Z,2.00
2023-05-11T03:00:25.920Z,2.90
2023-05-11T03:01:30.638Z,2.63
2023-05-11T03:02:32.757Z,2.50
2023-05-11T03:03:37.045Z,2.67
2023-05-11T03:04:39.247Z,2.47
2023-05-11T03:05:41.287Z,2.55
2023-05-11T03:06:43.363Z,2.67
2023-05-11T03:07:46.014Z,2.40
2023-05-11T03:08:48.134Z,2.17
2023-05-11T03:09:51.017Z,2.70
2023-05-11T03:10:54.011Z,2.65
2023-05-11T03:11:55.903Z,2.70
2023-05-11T03:12:57.761Z,2.58
2023-05-11T03:13:59.664Z,2.95
2023-05-11T03:15:02.777Z,3.00
2023-05-11T03:16:05.730Z,3.08
2023-05-11T03:17:08.398Z,4.80
2023-05-11T03:18:10.686Z,2.92
2023-05-11T03:19:13.168Z,2.60
2023-05-11T03:20:16.897Z,3.22
2023-05-11T03:21:21.634Z,3.20
2023-05-11T03:22:25.367Z,2.90
2023-05-11T03:23:27.506Z,2.72
2023-05-11T03:24:30.737Z,2.47
2023-05-11T03:25:32.582Z,2.90
2023-05-11T03:26:35.711Z,3.05
2023-05-11T03:27:39.360Z,3.03
2023-05-11T03:28:42.654Z,3.33
2023-05-11T03:29:46.293Z,3.47
2023-05-11T03:30:48.274Z,3.08
2023-05-11T03:31:51.424Z,3.42
2023-05-11T03:32:53.252Z,3.35
2023-05-11T03:33:55.067Z,3.55
2023-05-11T03:34:56.792Z,3.38
2023-05-11T03:36:00.172Z,3.22
2023-05-11T03:37:02.211Z,3.33
2023-05-11T03:38:06.819Z,3.85
2023-05-11T03:39:09.577Z,3.67
2023-05-11T03:40:12.951Z,4.20
2023-05-11T03:41:15.829Z,4.53
2023-05-11T03:42:18.039Z,3.70
2023-05-11T03:43:21.282Z,3.55
2023-05-11T03:44:24.510Z,3.60
2023-05-11T03:45:27.699Z,2.80
2023-05-11T03:46:30.119Z,3.63
2023-05-11T03:47:33.946Z,3.92
2023-05-11T03:48:36.905Z,3.28
2023-05-11T03:49:39.040Z,3.63
2023-05-11T03:50:41.008Z,3.35
2023-05-11T03:51:42.766Z,3.90
2023-05-11T03:52:44.421Z,3.30
2023-05-11T03:53:46.694Z,4.32
2023-05-11T03:54:48.550Z,3.58
2023-05-11T03:55:50.814Z,3.92
2023-05-11T03:56:57.661Z,3.80
2023-05-11T03:57:59.365Z,4.20
2023-05-11T03:59:01.018Z,3.42
2023-05-11T04:00:03.154Z,3.85
2023-05-11T04:01:05.070Z,3.90
2023-05-11T04:02:07.346Z,4.10
2023-05-11T04:03:10.109Z,4.10
2023-05-11T04:04:15.410Z,4.15
2023-05-11T04:05:18.661Z,4.25
2023-05-11T04:06:22.041Z,3.53
2023-05-11T04:07:23.808Z,3.78
2023-05-11T04:08:28.395Z,3.60
2023-05-11T04:09:30.066Z,3.75
2023-05-11T04:10:31.825Z,4.03
2023-05-11T04:11:38.364Z,4.57
2023-05-11T04:12:40.061Z,3.72
2023-05-11T04:13:41.741Z,3.90
2023-05-11T04:14:44.763Z,4.18
2023-05-11T04:15:46.509Z,3.70
2023-05-11T04:16:48.247Z,3.72
2023-05-11T04:17:49.932Z,3.05
2023-05-11T04:18:51.677Z,3.45
2023-05-11T04:19:53.363Z,3.65
2023-05-11T04:20:55.198Z,3.80
2023-05-11T06:05:11.999Z,2.88
2023-05-11T06:06:17.252Z,3.08
2023-05-11T06:07:21.127Z,3.40
2023-05-11T06:08:22.735Z,3.70
2023-05-11T06:09:24.344Z,3.05
2023-05-11T06:10:26.102Z,3.00
2023-05-11T06:11:27.810Z,3.53
2023-05-11T06:12:31.697Z,3.05
2023-05-11T06:13:35.199Z,3.45
2023-05-11T06:14:38.036Z,3.70
2023-05-11T07:05:24.788Z,4.82
2023-05-11T07:06:26.646Z,3.10
2023-05-11T07:07:28.590Z,4.80
2023-05-11T07:08:31.901Z,6.47
2023-05-11T07:09:34.098Z,4.20
2023-05-11T07:10:38.897Z,3.35
2023-05-11T07:11:44.786Z,5.55
2023-05-11T07:12:46.994Z,2.63
2023-05-11T07:13:52.538Z,2.50
2023-05-11T07:14:56.187Z,2.30
2023-05-11T07:15:59.022Z,2.45
2023-05-11T07:17:03.269Z,2.95
2023-05-11T07:18:06.146Z,2.88
2023-05-11T07:19:10.112Z,2.38
2023-05-11T07:20:12.342Z,2.85
2023-05-11T07:21:17.098Z,2.42
2023-05-11T07:22:19.184Z,3.22
2023-05-11T07:23:22.828Z,3.00
2023-05-11T07:24:24.861Z,2.35
2023-05-11T07:25:26.760Z,2.22
2023-05-11T07:26:32.365Z,2.03
2023-05-11T07:27:35.420Z,2.17
2023-05-11T07:28:37.684Z,2.45
2023-05-11T07:29:41.861Z,2.33
2023-05-11T07:30:58.516Z,2.10
2023-05-11T07:32:00.705Z,2.42
2023-05-11T07:33:03.355Z,2.25
2023-05-11T07:34:07.519Z,2.35
2023-05-11T07:35:09.407Z,2.45
2023-05-11T07:36:12.777Z,2.30
2023-05-11T07:37:14.767Z,3.35
2023-05-11T07:38:18.664Z,2.50
2023-05-11T07:39:20.644Z,2.70
2023-05-11T07:40:22.503Z,2.83
2023-05-11T07:41:27.813Z,2.53
2023-05-11T07:42:32.111Z,2.25
2023-05-11T07:43:34.210Z,2.58
2023-05-11T07:44:36.420Z,2.30
2023-05-11T07:45:38.421Z,2.42
2023-05-11T07:46:41.500Z,2.25
2023-05-11T07:47:48.027Z,2.72
2023-05-11T07:48:57.450Z,2.28
2023-05-11T07:50:06.354Z,2.20
2023-05-11T07:51:10.734Z,2.05
2023-05-11T07:52:12.916Z,2.03
2023-05-11T07:53:14.670Z,2.10
2023-05-11T07:54:20.941Z,2.60
2023-05-11T07:55:25.267Z,2.08
2023-05-11T07:56:27.202Z,1.98
2023-05-11T07:57:31.391Z,2.08
2023-05-11T07:58:33.402Z,2.13
2023-05-11T07:59:35.192Z,2.78
2023-05-11T08:00:38.579Z,2.35
2023-05-11T08:01:46.575Z,3.25
2023-05-11T08:02:48.760Z,2.13
2023-05-11T08:03:53.381Z,2.10
2023-05-11T08:04:55.305Z,2.38
2023-05-11T08:06:03.107Z,2.85
2023-05-11T08:07:05.238Z,2.22
2023-05-11T08:08:08.283Z,3.40
2023-05-11T08:09:12.735Z,2.25
2023-05-11T08:10:14.560Z,2.25
2023-05-11T08:11:16.817Z,2.00
2023-05-11T08:12:24.661Z,1.90
2023-05-11T08:13:28.967Z,1.80
2023-05-11T08:14:35.982Z,2.60
2023-05-11T08:15:39.733Z,1.63
2023-05-11T08:16:41.887Z,1.90
2023-05-11T08:17:46.455Z,1.58
2023-05-11T08:18:48.299Z,2.15
2023-05-11T08:19:51.268Z,2.17
2023-05-11T08:20:53.582Z,2.35
2023-05-11T08:21:58.227Z,2.17
2023-05-11T08:23:00.777Z,2.00
2023-05-11T08:24:03.298Z,2.25
2023-05-11T08:25:05.943Z,2.00
2023-05-11T08:26:08.462Z,1.90
2023-05-11T08:27:10.301Z,1.85
2023-05-11T08:28:12.578Z,1.80
2023-05-11T08:29:14.499Z,2.17
2023-05-11T08:30:18.844Z,2.10
2023-05-11T08:31:20.848Z,1.58
2023-05-11T08:32:22.732Z,2.03
2023-05-11T08:33:37.673Z,1.98
2023-05-11T08:34:45.164Z,2.00
2023-05-11T08:35:56.342Z,2.33
2023-05-11T08:37:00.797Z,1.98
2023-05-11T08:38:20.281Z,2.10
2023-05-11T08:40:48.204Z,1.77
2023-05-11T08:41:56.180Z,1.90
2023-05-11T08:43:49.338Z,1.65
2023-05-11T08:45:08.239Z,1.80
2023-05-11T08:46:23.294Z,1.90
2023-05-11T08:47:29.872Z,2.08
2023-05-11T08:48:33.159Z,2.28
2023-05-11T08:49:59.096Z,1.90
2023-05-11T08:53:04.364Z,2.20
2023-05-11T08:54:21.594Z,2.30
2023-05-11T08:55:42.237Z,2.20
2023-05-11T08:56:45.636Z,2.20
2023-05-11T08:57:52.247Z,1.77
2023-05-11T08:58:58.406Z,3.75
2023-05-11T09:00:26.927Z,3.47
2023-05-11T09:01:30.112Z,2.60
2023-05-11T09:02:35.406Z,2.33
2023-05-11T09:03:47.145Z,3.05
2023-05-11T09:04:50.038Z,2.90
2023-05-11T09:05:52.820Z,2.67
2023-05-11T09:06:55.246Z,2.83
2023-05-11T09:07:59.794Z,2.78
2023-05-11T09:09:01.713Z,3.38
2023-05-11T09:10:04.148Z,3.67
2023-05-11T09:11:06.655Z,2.85
2023-05-11T11:12:30.025Z,0.30
2023-05-11T11:13:51.761Z,4.25
2023-05-11T11:15:04.838Z,0.50
2023-05-11T11:16:06.845Z,0.30
2023-05-11T11:17:22.310Z,0.55
2023-05-11T11:18:27.844Z,0.63
2023-05-11T11:19:32.234Z,0.60
2023-05-11T11:20:47.332Z,0.50
2023-05-11T11:21:49.491Z,1.05
2023-05-11T11:22:51.358Z,0.40
2023-05-11T11:23:55.791Z,0.60
2023-05-11T11:24:57.954Z,0.73
2023-05-11T11:25:59.871Z,0.60
2023-05-11T11:27:08.028Z,0.32
2023-05-11T11:28:11.080Z,1.42
2023-05-11T11:29:15.493Z,0.50
2023-05-11T11:30:21.326Z,0.68
2023-05-11T11:31:26.723Z,0.40
2023-05-11T11:32:28.951Z,0.60
2023-05-11T11:33:31.989Z,0.60
2023-05-11T11:34:37.694Z,0.73
2023-05-11T11:35:42.698Z,0.50
2023-05-11T11:36:59.191Z,0.70
2023-05-11T11:38:07.475Z,0.40
2023-05-11T11:39:09.217Z,0.50
2023-05-11T11:40:15.199Z,0.47
2023-05-11T11:41:28.608Z,0.80
2023-05-11T11:42:30.471Z,0.40
2023-05-11T11:43:44.941Z,0.45
2023-05-11T11:44:47.106Z,0.60
2023-05-11T11:46:01.882Z,0.40
2023-05-11T11:47:15.920Z,0.40
2023-05-11T11:48:21.683Z,0.50
2023-05-11T11:49:27.367Z,0.98
2023-05-11T11:50:29.471Z,0.50
2023-05-11T11:51:33.473Z,0.50
2023-05-11T11:52:35.549Z,0.55
2023-05-11T11:53:46.433Z,0.40
2023-05-11T11:54:48.442Z,0.50
2023-05-11T11:55:51.333Z,0.40
2023-05-11T11:56:53.597Z,0.60
2023-05-11T11:57:55.390Z,1.33
2023-05-11T11:58:58.748Z,0.47
2023-05-11T12:00:10.023Z,0.65
2023-05-11T12:01:15.560Z,0.60
2023-05-11T12:02:21.170Z,0.75
2023-05-11T12:03:23.395Z,0.40
2023-05-11T12:04:38.577Z,1.88
2023-05-11T12:05:42.515Z,0.68
2023-05-11T12:06:47.348Z,1.52
2023-05-11T12:07:50.148Z,0.50
2023-05-11T12:08:52.401Z,0.50
2023-05-11T12:09:54.230Z,0.70
2023-05-11T12:10:56.147Z,0.57
2023-05-11T12:11:59.033Z,0.70
2023-05-11T12:13:01.943Z,0.43
2023-05-11T12:14:04.063Z,0.60
2023-05-11T12:15:09.298Z,0.50
2023-05-11T12:16:12.646Z,0.95
2023-05-11T12:17:16.703Z,0.50
2023-05-11T12:18:21.908Z,0.70
2023-05-11T12:19:26.812Z,1.02
2023-05-11T12:20:28.990Z,1.00
2023-05-11T12:21:33.401Z,0.88
2023-05-11T12:22:38.250Z,1.30
2023-05-11T12:26:00.598Z,1.10
2023-05-11T12:27:03.137Z,1.17
2023-05-11T12:28:05.142Z,0.80
2023-05-11T13:35:44.258Z,0.90
2023-05-11T13:36:46.507Z,0.80
2023-05-11T13:37:48.317Z,0.95
2023-05-11T13:38:50.050Z,0.77
2023-05-11T13:39:54.117Z,0.70
2023-05-11T13:40:56.940Z,1.42
2023-05-11T13:41:58.738Z,0.80
2023-05-11T13:43:00.728Z,0.75
2023-05-11T13:44:03.177Z,1.27
2023-05-11T13:45:11.638Z,1.00
2023-05-11T18:34:46.922Z,2.70
2023-05-11T18:35:50.529Z,3.25
2023-05-11T18:36:53.326Z,3.10
2023-05-11T18:37:55.242Z,6.70
2023-05-11T18:38:56.953Z,14.90
2023-05-11T18:39:58.617Z,13.70
2023-05-11T18:41:05.153Z,7.35
2023-05-11T18:42:08.313Z,6.32
2023-05-11T18:43:10.046Z,4.95
